createdAt,value
2022-12-11T00:02:22.412Z,99021.88
2022-12-11T00:04:50.053Z,99018.16
2022-12-11T00:07:17.645Z,99021.66
2022-12-11T00:09:45.270Z,99029.03
2022-12-11T00:12:12.870Z,99035.59
2022-12-11T00:14:40.464Z,99025.91
2022-12-11T00:17:08.139Z,99025.22
2022-12-11T00:19:35.793Z,99031.69
2022-12-11T00:22:03.477Z,99026.44
2022-12-11T00:24:31.283Z,99031.69
2022-12-11T00:26:59.032Z,99035.41
2022-12-11T00:29:26.650Z,99042.09
2022-12-11T00:31:54.326Z,99032.59
2022-12-11T00:34:22.039Z,99039.97
2022-12-11T00:36:49.626Z,99031.63
2022-12-11T00:39:17.336Z,99036.66
2022-12-11T00:41:45.125Z,99047.16
2022-12-11T00:44:12.797Z,99045.84
2022-12-11T00:46:40.436Z,99046.13
2022-12-11T00:49:08.073Z,99047.97
2022-12-11T00:51:35.759Z,99057.84
2022-12-11T00:54:03.691Z,99048.84
2022-12-11T00:56:34.226Z,99052.69
2022-12-11T00:59:01.899Z,99053.63
2022-12-11T01:01:29.729Z,99058.31
2022-12-11T01:03:57.608Z,99063.63
2022-12-11T01:06:28.070Z,99065.44
2022-12-11T01:09:15.119Z,99067.69
2022-12-11T01:11:43.526Z,99070.97
2022-12-11T01:14:11.862Z,99057.03
2022-12-11T01:16:39.523Z,99063.25
2022-12-11T01:19:07.168Z,99063.66
2022-12-11T01:21:34.852Z,99065.69
2022-12-11T01:24:02.519Z,99063.75
2022-12-11T01:26:30.822Z,99071.16
2022-12-11T01:28:58.681Z,99069.72
2022-12-11T01:31:26.397Z,99067.78
2022-12-11T01:33:55.628Z,99068.25
2022-12-11T01:36:23.786Z,99075.41
2022-12-11T01:38:51.500Z,99082.69
2022-12-11T01:41:19.261Z,99086.41
2022-12-11T01:44:00.256Z,99084.47
2022-12-11T01:46:29.515Z,99082.50
2022-12-11T01:48:57.975Z,99090.34
2022-12-11T01:51:26.783Z,99091.31
2022-12-11T01:54:02.131Z,99091.25
2022-12-11T01:56:33.422Z,99077.97
2022-12-11T01:59:07.425Z,99086.28
2022-12-11T02:01:47.476Z,99087.72
2022-12-11T02:04:16.242Z,99088.03
2022-12-11T02:06:50.809Z,99086.97
2022-12-11T02:09:32.345Z,99090.78
2022-12-11T02:12:04.929Z,99088.19
2022-12-11T02:14:45.026Z,99097.44
2022-12-11T02:17:16.648Z,99095.91
2022-12-11T02:19:57.968Z,99100.03
2022-12-11T02:22:43.667Z,99105.13
2022-12-11T02:25:25.976Z,99095.84
2022-12-11T02:28:16.112Z,99100.81
2022-12-11T02:30:50.417Z,99097.09
2022-12-11T02:33:26.304Z,99101.34
2022-12-11T02:35:55.220Z,99098.16
2022-12-11T02:38:31.567Z,99113.94
2022-12-11T02:41:01.508Z,99108.06
2022-12-11T02:43:32.704Z,99108.78
2022-12-11T02:46:01.520Z,99094.00
2022-12-11T02:48:30.696Z,99101.34
2022-12-11T02:51:00.216Z,99097.75
2022-12-11T02:53:31.472Z,99088.56
2022-12-11T02:56:08.777Z,99086.34
2022-12-11T02:58:43.021Z,99085.53
2022-12-11T03:01:10.875Z,99087.56
2022-12-11T03:03:38.787Z,99084.94
2022-12-11T03:06:06.906Z,99080.13
2022-12-11T03:08:34.574Z,99073.84
2022-12-11T03:11:02.278Z,99085.97
2022-12-11T03:13:30.057Z,99086.97
2022-12-11T03:16:07.348Z,99084.13
2022-12-11T03:18:44.477Z,99088.97
2022-12-11T03:21:12.185Z,99093.13
2022-12-11T03:24:15.252Z,99106.97
2022-12-11T03:26:55.985Z,99111.63
2022-12-11T03:29:30.391Z,99112.94
2022-12-11T03:32:23.191Z,99123.44
2022-12-11T03:35:10.653Z,99130.69
2022-12-11T03:37:41.211Z,99128.59
2022-12-11T03:40:17.681Z,99123.75
2022-12-11T03:42:49.872Z,99129.28
2022-12-11T03:45:19.896Z,99136.06
2022-12-11T03:47:48.067Z,99130.44
2022-12-11T03:50:18.364Z,99133.97
2022-12-11T03:52:47.890Z,99130.00
2022-12-11T03:55:18.784Z,99136.44
2022-12-11T03:57:46.492Z,99144.06
2022-12-11T04:00:18.695Z,99146.38
2022-12-11T04:03:11.401Z,99147.56
2022-12-11T04:05:48.610Z,99156.25
2022-12-11T04:08:18.382Z,99153.72
2022-12-11T04:10:46.218Z,99148.72
2022-12-11T04:13:14.556Z,99153.94
2022-12-11T04:15:42.348Z,99150.84
2022-12-11T04:18:29.336Z,99160.69
2022-12-11T04:21:15.760Z,99153.03
2022-12-11T04:24:02.099Z,99156.41
2022-12-11T04:26:29.871Z,99156.28
2022-12-11T04:28:57.576Z,99150.28
2022-12-11T04:31:25.287Z,99155.50
2022-12-11T04:33:53.384Z,99160.81
2022-12-11T04:36:21.517Z,99159.13
2022-12-11T04:38:49.222Z,99148.66
2022-12-11T04:41:17.598Z,99146.44
2022-12-11T04:43:45.443Z,99154.16
2022-12-11T04:46:20.132Z,99156.81
2022-12-11T04:48:52.400Z,99152.47
2022-12-11T04:51:23.380Z,99142.47
2022-12-11T04:53:51.232Z,99162.53
2022-12-11T04:56:19.568Z,99166.13
2022-12-11T04:58:48.427Z,99167.09
2022-12-11T05:01:18.851Z,99169.50
2022-12-11T05:03:47.299Z,99162.47
2022-12-11T05:06:15.667Z,99167.84
2022-12-11T05:08:44.021Z,99162.00
2022-12-11T05:11:14.077Z,99161.13
2022-12-11T05:13:42.487Z,99157.75
2022-12-11T05:16:12.683Z,99152.56
2022-12-11T05:18:40.784Z,99149.50
2022-12-11T05:21:11.303Z,99147.31
2022-12-11T05:23:39.947Z,99155.09
2022-12-11T05:26:11.714Z,99166.41
2022-12-11T05:28:40.166Z,99157.44
2022-12-11T05:31:14.076Z,99160.94
2022-12-11T05:33:42.317Z,99154.63
2022-12-11T05:36:16.114Z,99157.06
2022-12-11T05:38:44.252Z,99155.72
2022-12-11T05:41:14.469Z,99153.06
2022-12-11T05:43:42.690Z,99159.75
2022-12-11T05:46:17.985Z,99161.31
2022-12-11T05:48:48.827Z,99143.06
2022-12-11T05:51:17.884Z,99146.38
2022-12-11T05:53:47.193Z,99150.94
2022-12-11T05:56:35.110Z,99141.59
2022-12-11T05:59:04.878Z,99132.06
2022-12-11T06:01:36.055Z,99129.34
2022-12-11T06:04:05.682Z,99133.91
2022-12-11T06:06:34.223Z,99131.06
2022-12-11T06:09:02.536Z,99127.81
2022-12-11T06:11:32.432Z,99133.31
2022-12-11T06:14:02.713Z,99128.78
2022-12-11T06:16:30.537Z,99128.16
2022-12-11T06:18:58.945Z,99125.19
2022-12-11T06:21:31.758Z,99121.06
2022-12-11T06:24:02.146Z,99124.28
2022-12-11T06:26:30.333Z,99122.44
2022-12-11T06:28:58.403Z,99128.50
2022-12-11T06:31:26.128Z,99136.72
2022-12-11T06:33:54.498Z,99130.19
2022-12-11T06:36:23.716Z,99132.50
2022-12-11T06:38:52.397Z,99131.00
2022-12-11T06:41:20.106Z,99143.44
2022-12-11T06:43:47.892Z,99142.78
2022-12-11T06:46:18.742Z,99154.00
2022-12-11T06:48:47.022Z,99150.75
2022-12-11T06:51:20.764Z,99151.03
2022-12-11T06:53:53.652Z,99157.56
2022-12-11T06:56:22.044Z,99158.66
2022-12-11T06:58:49.903Z,99156.84
2022-12-11T07:01:23.699Z,99158.59
2022-12-11T07:03:55.979Z,99163.09
2022-12-11T07:06:25.186Z,99170.47
2022-12-11T07:08:53.940Z,99169.47
2022-12-11T07:11:22.338Z,99174.28
2022-12-11T07:13:50.104Z,99167.75
2022-12-11T07:16:18.511Z,99166.38
2022-12-11T07:18:50.931Z,99161.25
2022-12-11T07:21:20.233Z,99172.41
2022-12-11T07:23:49.534Z,99168.53
2022-12-11T07:26:19.632Z,99174.72
2022-12-11T07:28:47.898Z,99176.88
2022-12-11T07:31:24.455Z,99179.72
2022-12-11T07:33:56.497Z,99184.28
2022-12-11T07:36:25.001Z,99187.75
2022-12-11T07:38:53.531Z,99189.69
2022-12-11T07:41:22.411Z,99198.34
2022-12-11T07:43:54.997Z,99183.31
2022-12-11T07:46:25.440Z,99192.84
2022-12-11T07:48:53.288Z,99195.47
2022-12-11T07:51:29.776Z,99197.13
2022-12-11T07:54:02.127Z,99210.50
2022-12-11T07:56:30.778Z,99215.56
2022-12-11T07:59:04.445Z,99232.72
2022-12-11T08:01:36.642Z,99238.84
2022-12-11T08:04:10.511Z,99251.28
2022-12-11T08:06:40.266Z,99247.22
2022-12-11T08:09:14.691Z,99250.59
2022-12-11T08:11:48.979Z,99251.72
2022-12-11T08:14:16.830Z,99249.44
2022-12-11T08:16:44.927Z,99262.06
2022-12-11T08:19:13.206Z,99270.16
2022-12-11T08:21:41.568Z,99271.06
2022-12-11T08:24:10.205Z,99271.97
2022-12-11T08:26:37.877Z,99283.97
2022-12-11T08:29:05.619Z,99286.56
2022-12-11T08:31:33.853Z,99292.19
2022-12-11T08:34:01.970Z,99301.19
2022-12-11T08:36:29.649Z,99303.81
2022-12-11T08:38:57.809Z,99298.53
2022-12-11T08:41:28.290Z,99302.34
2022-12-11T08:43:57.770Z,99308.47
2022-12-11T08:46:27.516Z,99307.66
2022-12-11T08:48:55.983Z,99316.47
2022-12-11T08:51:26.318Z,99320.19
2022-12-11T08:53:58.669Z,99322.75
2022-12-11T08:56:28.428Z,99333.50
2022-12-11T08:58:56.233Z,99332.63
2022-12-11T09:01:26.835Z,99338.72
2022-12-11T09:03:56.627Z,99337.13
2022-12-11T09:06:27.512Z,99338.72
2022-12-11T09:08:56.267Z,99346.41
2022-12-11T09:11:28.720Z,99350.91
2022-12-11T09:13:56.436Z,99351.47
2022-12-11T09:16:25.867Z,99348.19
2022-12-11T09:18:55.571Z,99358.34
2022-12-11T09:21:29.199Z,99361.13
2022-12-11T09:23:59.973Z,99367.16
2022-12-11T09:26:29.213Z,99364.97
2022-12-11T09:28:57.726Z,99366.66
2022-12-11T09:31:31.120Z,99373.41
2022-12-11T09:34:02.196Z,99375.00
2022-12-11T09:36:30.320Z,99379.81
2022-12-11T09:39:02.474Z,99378.88
2022-12-11T09:41:36.746Z,99379.75
2022-12-11T09:44:27.701Z,99381.13
2022-12-11T09:46:56.831Z,99384.56
2022-12-11T09:49:32.328Z,99382.44
2022-12-11T09:52:34.696Z,99383.22
2022-12-11T09:55:24.708Z,99384.50
2022-12-11T09:57:52.338Z,99383.94
2022-12-11T10:00:32.606Z,99379.13
2022-12-11T10:03:09.119Z,99381.22
2022-12-11T10:05:52.668Z,99384.50
2022-12-11T10:08:39.290Z,99369.59
2022-12-11T10:11:33.241Z,99375.75
2022-12-11T10:14:17.452Z,99368.09
2022-12-11T10:16:57.793Z,99364.31
2022-12-11T10:19:29.192Z,99366.97
2022-12-11T10:21:59.704Z,99373.81
2022-12-11T10:25:09.956Z,99363.75
2022-12-11T10:27:33.287Z,99373.56
2022-12-11T10:30:23.352Z,99378.00
2022-12-11T10:33:23.293Z,99382.00
2022-12-11T10:35:53.944Z,99376.88
2022-12-11T10:38:45.182Z,99382.25
2022-12-11T10:41:24.682Z,99373.03
2022-12-11T10:43:54.161Z,99372.06
2022-12-11T10:46:28.367Z,99362.00
2022-12-11T10:48:58.804Z,99372.66
2022-12-11T10:51:35.393Z,99380.59
2022-12-11T10:54:38.350Z,99374.78
2022-12-11T10:57:09.203Z,99374.22
2022-12-11T10:59:49.999Z,99377.16
2022-12-11T11:02:26.661Z,99380.16
2022-12-11T11:05:04.067Z,99371.25
2022-12-11T11:07:35.358Z,99373.09
2022-12-11T11:10:05.468Z,99374.47
2022-12-11T11:12:48.210Z,99370.84
2022-12-11T11:15:22.776Z,99374.38
2022-12-11T11:18:01.245Z,99378.22
2022-12-11T11:20:34.362Z,99384.56
2022-12-11T11:23:14.246Z,99387.81
2022-12-11T11:25:56.292Z,99387.31
2022-12-11T11:28:34.302Z,99395.09
2022-12-11T11:31:16.311Z,99386.72
2022-12-11T11:33:57.835Z,99382.06
2022-12-11T11:36:28.869Z,99383.22
2022-12-11T11:39:02.648Z,99381.34
2022-12-11T11:41:44.575Z,99386.78
2022-12-11T11:44:19.579Z,99391.56
2022-12-11T11:46:59.988Z,99385.91
2022-12-11T11:49:46.273Z,99394.56
2022-12-11T11:52:29.549Z,99397.03
2022-12-11T11:55:39.355Z,99402.94
2022-12-11T11:58:17.598Z,99405.66
2022-12-11T12:00:45.734Z,99399.97
2022-12-11T12:03:16.700Z,99402.47
2022-12-11T12:05:50.528Z,99412.75
2022-12-11T12:08:53.503Z,99409.28
2022-12-11T12:11:49.719Z,99398.72
2022-12-11T12:17:56.125Z,99413.97
2022-12-11T12:20:35.916Z,99414.75
2022-12-11T12:23:06.619Z,99421.34
2022-12-11T12:26:02.046Z,99416.16
2022-12-11T12:28:41.700Z,99431.06
2022-12-11T12:31:30.648Z,99427.53
2022-12-11T12:34:31.367Z,99427.78
2022-12-11T12:37:08.294Z,99433.25
2022-12-11T12:39:38.988Z,99446.53
2022-12-11T12:42:11.607Z,99443.25
2022-12-11T12:44:52.296Z,99445.19
2022-12-11T12:47:20.909Z,99450.38
2022-12-11T12:49:54.567Z,99455.31
2022-12-11T12:52:31.135Z,99453.69
2022-12-11T12:55:14.589Z,99454.47
2022-12-11T12:57:55.133Z,99458.00
2022-12-11T13:00:28.594Z,99462.94
2022-12-11T13:02:56.879Z,99455.84
2022-12-11T13:05:30.623Z,99461.84
2022-12-11T13:08:02.835Z,99463.47
2022-12-11T13:10:30.573Z,99466.19
2022-12-11T13:12:59.819Z,99461.56
2022-12-11T13:15:43.855Z,99462.13
2022-12-11T13:18:35.028Z,99479.47
2022-12-11T13:21:24.287Z,99477.31
2022-12-11T13:23:52.260Z,99491.66
2022-12-11T13:26:45.824Z,99485.69
2022-12-11T13:29:53.087Z,99485.91
2022-12-11T13:32:30.217Z,99486.47
2022-12-11T13:35:00.301Z,99485.34
2022-12-11T13:37:36.039Z,99489.47
2022-12-11T13:40:08.527Z,99505.28
2022-12-11T13:42:50.536Z,99495.06
2022-12-11T13:45:23.292Z,99496.09
2022-12-11T13:47:51.380Z,99502.63
2022-12-11T13:50:26.416Z,99499.94
2022-12-11T13:52:59.290Z,99496.88
2022-12-11T13:55:33.625Z,99513.94
2022-12-11T13:58:01.842Z,99509.72
2022-12-11T14:00:32.976Z,99511.13
2022-12-11T14:03:07.552Z,99505.91
2022-12-11T14:05:35.675Z,99504.53
2022-12-11T14:08:11.477Z,99510.34
2022-12-11T14:10:40.855Z,99528.22
2022-12-11T14:13:22.381Z,99526.97
2022-12-11T14:15:50.823Z,99531.72
2022-12-11T14:18:23.539Z,99533.34
2022-12-11T14:20:56.604Z,99533.63
2022-12-11T14:23:27.599Z,99531.72
2022-12-11T14:26:03.065Z,99524.75
2022-12-11T14:28:41.118Z,99523.09
2022-12-11T14:31:12.413Z,99522.47
2022-12-11T14:33:48.824Z,99525.19
2022-12-11T14:36:18.376Z,99515.69
2022-12-11T14:38:53.373Z,99521.97
2022-12-11T14:41:32.400Z,99534.63
2022-12-11T14:44:04.553Z,99531.94
2022-12-11T14:46:42.574Z,99526.66
2022-12-11T14:49:21.243Z,99526.97
2022-12-11T14:51:50.758Z,99533.47
2022-12-11T14:54:30.016Z,99547.78
2022-12-11T14:56:59.385Z,99553.28
2022-12-11T14:59:32.194Z,99547.03
2022-12-11T15:02:03.261Z,99553.25
2022-12-11T15:04:33.584Z,99559.53
2022-12-11T15:07:01.503Z,99552.56
2022-12-11T15:09:38.274Z,99557.50
2022-12-11T15:12:13.663Z,99559.53
2022-12-11T15:14:52.143Z,99557.00
2022-12-11T15:17:21.065Z,99566.41
2022-12-11T15:19:51.827Z,99560.19
2022-12-11T15:22:26.282Z,99566.16
2022-12-11T15:24:55.204Z,99564.59
2022-12-11T15:27:36.967Z,99567.91
2022-12-11T15:30:20.243Z,99573.81
2022-12-11T15:32:48.016Z,99574.31
2022-12-11T15:35:25.475Z,99571.19
2022-12-11T15:37:55.405Z,99580.50
2022-12-11T15:40:24.514Z,99575.34
2022-12-11T15:42:52.623Z,99567.47
2022-12-11T15:45:23.564Z,99585.00
2022-12-11T15:47:52.292Z,99588.59
2022-12-11T15:50:25.997Z,99585.53
2022-12-11T15:52:55.212Z,99587.63
2022-12-11T15:55:26.735Z,99587.41
2022-12-11T15:57:58.170Z,99599.16
2022-12-11T16:00:28.400Z,99600.13
2022-12-11T16:02:57.831Z,99599.09
2022-12-11T16:05:27.113Z,99610.16
2022-12-11T16:07:59.722Z,99611.47
2022-12-11T16:10:28.197Z,99615.03
2022-12-11T16:12:59.680Z,99626.66
2022-12-11T16:15:27.773Z,99621.78
2022-12-11T16:18:10.038Z,99626.44
2022-12-11T16:20:40.209Z,99634.72
2022-12-11T16:23:09.177Z,99633.97
2022-12-11T16:25:39.378Z,99624.56
2022-12-11T16:28:08.587Z,99633.81
2022-12-11T16:30:37.945Z,99634.09
2022-12-11T16:33:12.161Z,99639.56
2022-12-11T16:35:42.133Z,99642.03
2022-12-11T16:38:14.195Z,99647.72
2022-12-11T16:40:42.112Z,99646.88
2022-12-11T16:43:11.023Z,99658.28
2022-12-11T16:45:38.848Z,99650.41
2022-12-11T16:48:06.814Z,99650.94
2022-12-11T16:50:36.283Z,99659.66
2022-12-11T16:53:04.214Z,99660.72
2022-12-11T16:55:31.995Z,99659.66
2022-12-11T16:57:59.921Z,99657.41
2022-12-11T17:00:27.967Z,99659.25
2022-12-11T17:02:55.937Z,99650.75
2022-12-11T17:05:25.045Z,99660.00
2022-12-11T17:07:53.031Z,99655.63
2022-12-11T17:10:21.753Z,99654.06
2022-12-11T17:12:49.822Z,99642.88
2022-12-11T17:15:17.706Z,99654.31
2022-12-11T17:17:45.548Z,99656.84
2022-12-11T17:20:13.611Z,99655.22
2022-12-11T17:22:41.863Z,99652.78
2022-12-11T17:25:10.155Z,99649.44
2022-12-11T17:27:38.856Z,99658.28
2022-12-11T17:30:08.334Z,99659.56
2022-12-11T17:32:36.643Z,99673.34
2022-12-11T17:35:04.693Z,99658.97
2022-12-11T17:37:32.866Z,99655.28
2022-12-11T17:40:00.927Z,99659.03
2022-12-11T17:42:28.844Z,99661.50
2022-12-11T17:44:57.560Z,99665.03
2022-12-11T17:47:25.324Z,99669.97
2022-12-11T17:49:53.294Z,99670.56
2022-12-11T17:52:21.188Z,99671.09
2022-12-11T17:54:49.390Z,99672.84
2022-12-11T17:57:17.461Z,99680.88
2022-12-11T17:59:45.415Z,99675.50
2022-12-11T18:02:13.408Z,99676.59
2022-12-11T18:04:41.550Z,99691.28
2022-12-11T18:07:09.325Z,99680.97
2022-12-11T18:09:40.587Z,99688.31
2022-12-11T18:12:09.674Z,99688.25
2022-12-11T18:14:37.788Z,99688.59
2022-12-11T18:17:06.700Z,99684.84
2022-12-11T18:19:34.608Z,99684.91
2022-12-11T18:22:02.481Z,99688.44
2022-12-11T18:24:31.861Z,99686.53
2022-12-11T18:26:59.887Z,99691.16
2022-12-11T18:29:27.897Z,99687.66
2022-12-11T18:31:55.895Z,99682.78
2022-12-11T18:34:23.816Z,99693.34
2022-12-11T18:36:51.972Z,99695.19
2022-12-11T18:39:19.819Z,99698.78
2022-12-11T18:42:03.493Z,99700.16
2022-12-11T18:44:35.415Z,99694.34
2022-12-11T18:47:03.368Z,99707.06
2022-12-11T18:49:31.256Z,99705.41
2022-12-11T18:51:59.167Z,99714.41
2022-12-11T18:54:26.943Z,99720.91
2022-12-11T18:56:54.770Z,99712.03
2022-12-11T18:59:22.558Z,99719.91
2022-12-11T19:01:50.439Z,99724.19
2022-12-11T19:04:18.279Z,99716.66
2022-12-11T19:06:46.250Z,99727.78
2022-12-11T19:09:14.197Z,99724.53
2022-12-11T19:11:42.552Z,99725.34
2022-12-11T19:14:11.173Z,99729.38
2022-12-11T19:16:42.926Z,99727.66
2022-12-11T19:19:21.106Z,99720.91
2022-12-11T19:21:50.349Z,99728.53
2022-12-11T19:24:21.551Z,99721.69
2022-12-11T19:26:49.676Z,99726.81
2022-12-11T19:29:32.632Z,99734.66
2022-12-11T19:32:02.630Z,99729.53
2022-12-11T19:34:30.757Z,99747.63
2022-12-11T19:36:58.918Z,99738.88
2022-12-11T19:39:26.905Z,99744.84
2022-12-11T19:41:54.713Z,99744.88
2022-12-11T19:44:22.533Z,99754.19
2022-12-11T19:46:51.583Z,99748.53
2022-12-11T19:49:20.161Z,99754.25
2022-12-11T19:51:48.216Z,99746.13
2022-12-11T19:54:18.352Z,99764.59
2022-12-11T19:56:46.312Z,99767.78
2022-12-11T19:59:17.047Z,99762.56
2022-12-11T20:01:48.250Z,99760.75
2022-12-11T20:04:18.031Z,99762.28
2022-12-11T20:06:47.168Z,99764.13
2022-12-11T20:09:15.637Z,99769.75
2022-12-11T20:11:45.008Z,99776.94
2022-12-11T20:14:24.008Z,99768.28
2022-12-11T20:17:10.537Z,99772.06
2022-12-11T20:19:40.328Z,99780.69
2022-12-11T20:22:09.394Z,99783.78
2022-12-11T20:24:38.066Z,99790.44
2022-12-11T20:27:06.104Z,99787.22
2022-12-11T20:29:34.424Z,99792.94
2022-12-11T20:32:02.503Z,99792.91
2022-12-11T20:34:30.374Z,99805.41
2022-12-11T20:36:58.230Z,99795.91
2022-12-11T20:39:29.049Z,99800.59
2022-12-11T20:41:59.708Z,99805.97
2022-12-11T20:44:27.615Z,99795.44
2022-12-11T20:46:56.594Z,99798.66
2022-12-11T20:49:24.739Z,99798.66
2022-12-11T20:51:52.986Z,99810.94
2022-12-11T20:54:21.032Z,99810.94
2022-12-11T20:56:49.020Z,99804.59
2022-12-11T20:59:18.395Z,99796.75
2022-12-11T21:01:46.542Z,99809.78
2022-12-11T21:04:14.524Z,99810.53
2022-12-11T21:06:42.566Z,99812.09
2022-12-11T21:09:17.973Z,99809.63
2022-12-11T21:11:46.169Z,99815.28
2022-12-11T21:14:15.427Z,99809.28
2022-12-11T21:20:21.400Z,99825.50
2022-12-11T21:22:49.102Z,99823.00
2022-12-11T21:25:16.900Z,99819.91
2022-12-11T21:27:44.623Z,99829.31
2022-12-11T21:30:12.959Z,99828.72
2022-12-11T21:32:42.661Z,99842.44
2022-12-11T21:35:11.241Z,99844.06
2022-12-11T21:37:41.917Z,99843.53
2022-12-11T21:40:10.160Z,99847.47
2022-12-11T21:42:37.981Z,99846.59
2022-12-11T21:47:54.059Z,99859.03
2022-12-11T21:50:22.461Z,99864.53
2022-12-11T21:52:50.786Z,99866.16
2022-12-11T21:55:19.457Z,99862.94
2022-12-11T21:57:47.134Z,99869.44
2022-12-11T22:00:16.108Z,99867.94
2022-12-11T22:02:43.977Z,99873.88
2022-12-11T22:05:11.840Z,99872.91
2022-12-11T22:07:39.826Z,99875.94
2022-12-11T22:10:08.018Z,99876.69
2022-12-11T22:12:35.758Z,99875.78
2022-12-11T22:15:03.954Z,99872.69
2022-12-11T22:17:32.361Z,99880.72
2022-12-11T22:20:00.141Z,99877.63
2022-12-11T22:22:27.957Z,99881.41
2022-12-11T22:24:55.687Z,99880.72
2022-12-11T22:27:24.011Z,99881.03
2022-12-11T22:29:51.880Z,99882.19
2022-12-11T22:32:19.574Z,99878.19
2022-12-11T22:34:47.182Z,99888.41
2022-12-11T22:37:14.901Z,99885.75
2022-12-11T22:39:42.558Z,99889.72
2022-12-11T22:42:10.302Z,99892.03
2022-12-11T22:44:38.053Z,99890.53
2022-12-11T22:47:05.724Z,99884.38
2022-12-11T22:49:33.695Z,99887.53
2022-12-11T22:52:01.444Z,99881.56
2022-12-11T22:54:29.362Z,99883.88
2022-12-11T22:56:59.205Z,99889.34
2022-12-11T22:59:26.972Z,99886.03
2022-12-11T23:01:54.673Z,99878.75
2022-12-11T23:04:22.384Z,99880.41
2022-12-11T23:06:50.206Z,99886.56
2022-12-11T23:09:18.201Z,99886.28
2022-12-11T23:11:45.901Z,99886.31
2022-12-11T23:14:17.796Z,99887.38
2022-12-11T23:16:45.670Z,99888.91
2022-12-11T23:19:13.454Z,99881.22
2022-12-11T23:21:41.566Z,99878.94
2022-12-11T23:24:10.317Z,99873.22
2022-12-11T23:26:38.156Z,99872.38
2022-12-11T23:29:06.824Z,99874.31
2022-12-11T23:31:34.873Z,99866.63
2022-12-11T23:34:02.645Z,99860.59
2022-12-11T23:36:30.780Z,99862.47
2022-12-11T23:38:58.552Z,99870.97
2022-12-11T23:41:26.286Z,99874.34
2022-12-11T23:43:53.970Z,99862.13
2022-12-11T23:46:24.041Z,99866.13
2022-12-11T23:48:53.212Z,99866.88
2022-12-11T23:51:23.499Z,99878.00
2022-12-11T23:53:51.877Z,99866.88
2022-12-11T23:56:22.810Z,99874.13
2022-12-11T23:58:51.305Z,99869.72
